Time;durP1;ratioP1;P1;durP2;ratioP2;P2;SDS_P1;SDS_P2;PMS_P1;PMS_P2;Temp;Humidity;BMP_temperature;BMP_pressure;BME280_temperature;BME280_humidity;BME280_pressure;Samples;Min_cycle;Max_cycle;Signal;HPM_P1;HPM_P2
2023/07/27 00:07:14;;;;;;;4.28;2.75;;;;;;;;;;6260205;22;20656;-91
2023/07/27 00:10:20;;;;;;;5.70;2.58;;;;;;;;;;6259140;23;20238;-93
2023/07/27 00:13:25;;;;;;;3.97;2.25;;;;;;;;;;6260010;22;20175;-88
2023/07/27 00:16:30;;;;;;;6.57;2.60;;;;;;;;;;6258754;23;20531;-89
2023/07/27 00:19:35;;;;;;;8.35;2.80;;;;;;;;;;6258850;22;20470;-91
2023/07/27 00:22:42;;;;;;;5.03;2.78;;;;;;;;;;6258484;22;20574;-90
2023/07/27 00:25:46;;;;;;;5.53;3.00;;;;;;;;;;6259248;23;20162;-91
2023/07/27 00:28:51;;;;;;;12.43;2.65;;;;;;;;;;6257260;22;20165;-91
2023/07/27 00:31:57;;;;;;;6.32;2.95;;;;;;;;;;6255912;22;20244;-91
2023/07/27 00:35:02;;;;;;;6.80;2.70;;;;;;;;;;6256641;23;20186;-91
2023/07/27 00:38:23;;;;;;;4.75;3.00;;;;;;;;;;6258020;22;20170;-90
2023/07/27 00:41:28;;;;;;;5.85;3.28;;;;;;;;;;6256761;22;20229;-91
2023/07/27 00:44:33;;;;;;;6.50;3.33;;;;;;;;;;6256144;22;20166;-93
2023/07/27 00:47:38;;;;;;;6.78;3.10;;;;;;;;;;6254364;23;20175;-91
2023/07/27 00:50:44;;;;;;;3.55;2.72;;;;;;;;;;6256890;22;20215;-93
2023/07/27 00:53:51;;;;;;;10.77;3.38;;;;;;;;;;6258126;23;20174;-89
2023/07/27 00:56:56;;;;;;;5.57;3.25;;;;;;;;;;6256922;23;20665;-91
2023/07/27 01:00:02;;;;;;;6.22;3.30;;;;;;;;;;6256269;22;20321;-87
2023/07/27 01:03:08;;;;;;;6.72;3.63;;;;;;;;;;6256069;22;20166;-91
2023/07/27 01:06:13;;;;;;;8.10;4.20;;;;;;;;;;6258559;22;20222;-92
2023/07/27 01:09:20;;;;;;;8.15;4.55;;;;;;;;;;6256882;22;20233;-92
2023/07/27 01:12:27;;;;;;;7.82;4.78;;;;;;;;;;6258101;23;20209;-90
2023/07/27 01:15:33;;;;;;;6.47;4.40;;;;;;;;;;6255759;23;20521;-89
2023/07/27 01:18:42;;;;;;;12.35;4.85;;;;;;;;;;6257479;23;20146;-92
2023/07/27 01:21:49;;;;;;;9.40;5.13;;;;;;;;;;6257501;23;20171;-90
2023/07/27 01:25:05;;;;;;;7.78;5.30;;;;;;;;;;6257477;22;20498;-90
2023/07/27 01:28:15;;;;;;;11.50;5.07;;;;;;;;;;6258089;22;20166;-92
2023/07/27 01:31:23;;;;;;;8.13;4.55;;;;;;;;;;6257711;23;20185;-90
2023/07/27 01:34:31;;;;;;;7.90;5.18;;;;;;;;;;6255636;23;20697;-88
2023/07/27 01:38:14;;;;;;;9.07;5.60;;;;;;;;;;6258717;23;20197;-90
2023/07/27 01:41:19;;;;;;;11.10;6.50;;;;;;;;;;6258356;23;20241;-94
2023/07/27 01:44:25;;;;;;;15.32;6.32;;;;;;;;;;6258477;23;20166;-89
2023/07/27 01:47:32;;;;;;;12.32;6.00;;;;;;;;;;6257984;23;20174;-91
2023/07/27 01:50:38;;;;;;;18.33;6.22;;;;;;;;;;6260311;23;20532;-89
2023/07/27 01:53:45;;;;;;;56.10;6.57;;;;;;;;;;6259846;22;20170;-89
2023/07/27 01:56:51;;;;;;;11.65;6.15;;;;;;;;;;6257889;22;20213;-89
2023/07/27 01:59:56;;;;;;;9.95;6.50;;;;;;;;;;6258774;22;20166;-89
2023/07/27 02:03:03;;;;;;;11.82;6.60;;;;;;;;;;6257014;23;20595;-91
2023/07/27 02:06:09;;;;;;;14.63;6.60;;;;;;;;;;6258109;22;20151;-89
2023/07/27 02:09:14;;;;;;;45.67;6.78;;;;;;;;;;6258309;23;20232;-92
2023/07/27 02:12:21;;;;;;;9.10;5.72;;;;;;;;;;6257536;23;20167;-91
2023/07/27 02:15:28;;;;;;;8.13;4.85;;;;;;;;;;6257381;22;20589;-89
2023/07/27 02:18:36;;;;;;;7.57;4.95;;;;;;;;;;6256541;23;20210;-91
2023/07/27 02:21:41;;;;;;;10.10;5.10;;;;;;;;;;6258614;22;20215;-91
2023/07/27 02:24:47;;;;;;;29.85;6.50;;;;;;;;;;6258612;22;20166;-92
2023/07/27 02:27:52;;;;;;;14.98;5.13;;;;;;;;;;6257985;23;20673;-89
2023/07/27 02:30:58;;;;;;;15.35;5.60;;;;;;;;;;6260575;22;20162;-89
2023/07/27 02:34:05;;;;;;;9.57;5.43;;;;;;;;;;6256386;22;20225;-91
2023/07/27 02:37:13;;;;;;;10.13;5.22;;;;;;;;;;6257190;22;20171;-91
2023/07/27 02:40:20;;;;;;;13.85;5.55;;;;;;;;;;6258285;23;20181;-91
2023/07/27 02:43:26;;;;;;;18.73;6.85;;;;;;;;;;6259762;22;20174;-89
2023/07/27 02:46:31;;;;;;;10.73;5.93;;;;;;;;;;6257476;22;20175;-91
2023/07/27 02:49:37;;;;;;;9.70;6.47;;;;;;;;;;6257835;22;20166;-89
2023/07/27 02:52:44;;;;;;;14.85;6.38;;;;;;;;;;6258808;22;20151;-90
2023/07/27 02:55:59;;;;;;;12.73;5.75;;;;;;;;;;6258979;22;20189;-90
2023/07/27 02:59:04;;;;;;;9.90;6.00;;;;;;;;;;6257836;23;20163;-89
2023/07/27 03:02:50;;;;;;;10.38;6.20;;;;;;;;;;6257236;22;20166;-89
2023/07/27 03:06:00;;;;;;;13.38;6.50;;;;;;;;;;6257352;22;20239;-90
2023/07/27 03:09:05;;;;;;;10.52;6.35;;;;;;;;;;6259633;23;20186;-91
2023/07/27 03:12:11;;;;;;;17.52;6.90;;;;;;;;;;6257302;23;20617;-93
2023/07/27 03:15:16;;;;;;;11.65;7.10;;;;;;;;;;6257238;22;20240;-92
2023/07/27 03:18:22;;;;;;;15.38;6.75;;;;;;;;;;6255543;23;20173;-91
2023/07/27 03:21:29;;;;;;;10.57;6.45;;;;;;;;;;6257423;22;20151;-91
2023/07/27 03:24:35;;;;;;;9.40;6.18;;;;;;;;;;6256272;22;20174;-92
2023/07/27 03:27:41;;;;;;;9.98;6.38;;;;;;;;;;6257740;23;20170;-91
2023/07/27 03:30:46;;;;;;;17.42;7.03;;;;;;;;;;6257898;23;20170;-91
2023/07/27 03:33:51;;;;;;;12.70;6.32;;;;;;;;;;6257732;23;20162;-90
2023/07/27 03:40:38;;;;;;;10.15;6.30;;;;;;;;;;6258545;23;20213;-92
2023/07/27 03:43:43;;;;;;;11.50;6.47;;;;;;;;;;6257927;22;20166;-90
2023/07/27 03:46:48;;;;;;;16.17;6.80;;;;;;;;;;6256004;22;20167;-90
2023/07/27 03:49:53;;;;;;;9.43;6.65;;;;;;;;;;6258394;22;20150;-90
2023/07/27 03:52:58;;;;;;;10.48;6.45;;;;;;;;;;6259111;22;20240;-91
2023/07/27 03:56:06;;;;;;;9.00;6.07;;;;;;;;;;6261277;22;20606;-91
2023/07/27 03:59:11;;;;;;;10.90;6.85;;;;;;;;;;6261083;23;20177;-90
2023/07/27 04:02:35;;;;;;;9.52;6.25;;;;;;;;;;6259482;22;20193;-89
2023/07/27 04:05:40;;;;;;;9.73;5.45;;;;;;;;;;6260467;22;20617;-92
2023/07/27 04:08:45;;;;;;;9.65;5.82;;;;;;;;;;6259553;22;20181;-92
2023/07/27 04:11:52;;;;;;;8.82;5.55;;;;;;;;;;6260383;23;20227;-93
2023/07/27 04:14:57;;;;;;;7.93;5.40;;;;;;;;;;6259703;22;20170;-93
2023/07/27 04:18:02;;;;;;;8.43;5.57;;;;;;;;;;6257003;22;20189;-90
2023/07/27 04:21:08;;;;;;;15.20;5.70;;;;;;;;;;6258892;22;20166;-90
2023/07/27 04:24:14;;;;;;;9.05;5.78;;;;;;;;;;6259629;22;20282;-91
2023/07/27 04:27:20;;;;;;;14.10;5.53;;;;;;;;;;6258574;22;20298;-90
2023/07/27 04:30:26;;;;;;;10.48;6.03;;;;;;;;;;6257943;23;20166;-90
2023/07/27 04:33:32;;;;;;;8.18;5.22;;;;;;;;;;6257839;23;20198;-91
2023/07/27 04:36:39;;;;;;;14.90;5.75;;;;;;;;;;6257647;23;20246;-90
2023/07/27 04:39:44;;;;;;;12.82;5.50;;;;;;;;;;6258268;23;20162;-90
2023/07/27 04:42:50;;;;;;;10.80;5.43;;;;;;;;;;6260505;23;20278;-91
2023/07/27 04:45:55;;;;;;;7.75;5.15;;;;;;;;;;6260245;23;20170;-91
2023/07/27 04:52:21;;;;;;;10.82;5.25;;;;;;;;;;6261848;23;20193;-89
2023/07/27 04:55:26;;;;;;;9.95;5.10;;;;;;;;;;6258946;23;20206;-92
2023/07/27 04:58:33;;;;;;;11.90;5.13;;;;;;;;;;6242758;23;20173;-92
2023/07/27 05:05:32;;;;;;;9.88;5.93;;;;;;;;;;6244518;22;20210;-90
2023/07/27 05:08:36;;;;;;;10.43;6.47;;;;;;;;;;6242024;23;20210;-91
2023/07/27 05:11:41;;;;;;;11.02;5.63;;;;;;;;;;6244649;23;20162;-91
2023/07/27 05:14:48;;;;;;;25.48;6.13;;;;;;;;;;6244103;23;20205;-91
2023/07/27 05:17:53;;;;;;;7.32;5.47;;;;;;;;;;6241954;23;20717;-89
2023/07/27 05:20:58;;;;;;;11.23;6.25;;;;;;;;;;6248999;22;20185;-89
2023/07/27 05:24:03;;;;;;;11.38;6.50;;;;;;;;;;6241015;22;20178;-93
2023/07/27 05:27:09;;;;;;;13.95;6.13;;;;;;;;;;6243191;23;20178;-92
2023/07/27 05:30:16;;;;;;;9.57;5.80;;;;;;;;;;6242627;23;20162;-91
2023/07/27 05:37:46;;;;;;;7.65;5.20;;;;;;;;;;6262368;22;20190;-90
2023/07/27 05:40:51;;;;;;;9.40;5.38;;;;;;;;;;6244861;23;20189;-90
2023/07/27 05:44:00;;;;;;;8.20;4.75;;;;;;;;;;6245203;22;20158;-92
2023/07/27 05:47:06;;;;;;;12.55;5.50;;;;;;;;;;6245016;23;20162;-90
2023/07/27 05:50:12;;;;;;;9.63;5.40;;;;;;;;;;6246065;23;20181;-90
2023/07/27 05:53:18;;;;;;;8.60;5.10;;;;;;;;;;6243362;23;20171;-92
2023/07/27 05:56:23;;;;;;;7.25;5.03;;;;;;;;;;6252872;23;20309;-92
2023/07/27 05:59:28;;;;;;;10.40;5.60;;;;;;;;;;6261824;22;20150;-94
2023/07/27 06:02:36;;;;;;;8.13;5.28;;;;;;;;;;6259348;22;20209;-87
2023/07/27 06:05:44;;;;;;;9.60;5.78;;;;;;;;;;6258341;22;20202;-89
2023/07/27 06:08:49;;;;;;;9.73;6.13;;;;;;;;;;6258851;22;20170;-90
2023/07/27 06:11:54;;;;;;;8.38;5.40;;;;;;;;;;6257414;22;20178;-88
2023/07/27 06:14:59;;;;;;;8.40;5.07;;;;;;;;;;6260747;23;20178;-90
2023/07/27 06:18:07;;;;;;;8.18;5.30;;;;;;;;;;6257389;22;20618;-90
2023/07/27 06:21:12;;;;;;;8.07;5.57;;;;;;;;;;6259191;22;20696;-89
2023/07/27 06:24:17;;;;;;;11.20;5.35;;;;;;;;;;6259151;22;20174;-90
2023/07/27 06:27:23;;;;;;;9.52;5.90;;;;;;;;;;6260683;22;20186;-91
2023/07/27 06:30:28;;;;;;;8.07;5.50;;;;;;;;;;6259265;22;20231;-89
2023/07/27 06:33:35;;;;;;;6.72;4.45;;;;;;;;;;6260730;22;20237;-90
2023/07/27 06:36:41;;;;;;;10.50;5.45;;;;;;;;;;6263316;22;20173;-91
2023/07/27 06:39:48;;;;;;;9.40;5.25;;;;;;;;;;6260204;22;20163;-92
2023/07/27 06:42:52;;;;;;;7.30;4.72;;;;;;;;;;6258521;22;20166;-90
2023/07/27 06:45:58;;;;;;;8.75;4.82;;;;;;;;;;6259187;23;20171;-90
2023/07/27 06:49:05;;;;;;;6.80;4.15;;;;;;;;;;6256891;23;20175;-90
2023/07/27 06:52:09;;;;;;;6.90;4.53;;;;;;;;;;6258025;23;20162;-90
2023/07/27 06:55:16;;;;;;;5.97;4.10;;;;;;;;;;6258176;23;20194;-89
2023/07/27 06:58:44;;;;;;;8.45;4.30;;;;;;;;;;6248594;23;20259;-90
2023/07/27 07:01:49;;;;;;;6.53;4.07;;;;;;;;;;6238832;23;20155;-91
2023/07/27 07:04:56;;;;;;;6.55;4.15;;;;;;;;;;6238338;23;20186;-88
2023/07/27 07:08:01;;;;;;;5.90;3.35;;;;;;;;;;6240204;23;20275;-89
2023/07/27 07:11:06;;;;;;;6.90;3.17;;;;;;;;;;6240219;22;20182;-91
2023/07/27 07:14:12;;;;;;;4.10;3.00;;;;;;;;;;6242192;23;20578;-90
2023/07/27 07:17:17;;;;;;;5.88;2.30;;;;;;;;;;6240073;22;20264;-89
2023/07/27 07:20:23;;;;;;;5.50;2.95;;;;;;;;;;6239906;22;20154;-88
2023/07/27 07:23:28;;;;;;;5.18;2.65;;;;;;;;;;6241593;23;20245;-90
2023/07/27 07:26:33;;;;;;;3.50;2.10;;;;;;;;;;6245434;23;20216;-89
2023/07/27 07:29:39;;;;;;;3.00;2.00;;;;;;;;;;6242106;23;20170;-90
2023/07/27 07:32:44;;;;;;;2.70;1.83;;;;;;;;;;6246764;23;20537;-88
2023/07/27 07:35:51;;;;;;;3.58;2.28;;;;;;;;;;6240552;22;20316;-89
2023/07/27 07:39:02;;;;;;;3.75;2.30;;;;;;;;;;6240449;22;20190;-88
2023/07/27 07:42:07;;;;;;;5.43;2.40;;;;;;;;;;6244242;23;20246;-89
2023/07/27 07:45:13;;;;;;;5.70;2.78;;;;;;;;;;6239907;23;20162;-88
2023/07/27 07:48:19;;;;;;;6.25;2.30;;;;;;;;;;6257014;22;20716;-89
2023/07/27 07:51:25;;;;;;;4.70;2.30;;;;;;;;;;6239613;23;20213;-88
2023/07/27 07:54:32;;;;;;;5.70;2.70;;;;;;;;;;6239822;23;20163;-88
2023/07/27 07:57:38;;;;;;;2.70;1.98;;;;;;;;;;6242785;23;20193;-88
2023/07/27 08:00:48;;;;;;;7.65;2.65;;;;;;;;;;6239763;23;20170;-88
2023/07/27 08:03:53;;;;;;;4.10;2.28;;;;;;;;;;6240702;22;20174;-88
2023/07/27 08:07:01;;;;;;;5.13;2.47;;;;;;;;;;6240700;23;20186;-88
2023/07/27 08:10:07;;;;;;;5.45;2.50;;;;;;;;;;6240070;23;20170;-88
2023/07/27 08:13:12;;;;;;;3.38;2.20;;;;;;;;;;6238953;23;20498;-87
2023/07/27 08:16:18;;;;;;;3.45;2.20;;;;;;;;;;6240774;23;20170;-89
2023/07/27 08:19:23;;;;;;;4.03;2.30;;;;;;;;;;6237969;23;20233;-87
2023/07/27 08:22:31;;;;;;;6.90;2.50;;;;;;;;;;6237519;23;20167;-90
2023/07/27 08:25:38;;;;;;;5.20;2.40;;;;;;;;;;6239725;23;20166;-88
2023/07/27 08:28:43;;;;;;;6.50;2.20;;;;;;;;;;6238360;23;20486;-89
2023/07/27 08:31:48;;;;;;;3.92;2.25;;;;;;;;;;6237271;23;20246;-87
2023/07/27 09:19:59;;;;;;;3.22;2.00;;;;;;;;;;6236736;22;20215;-87
2023/07/27 09:23:04;;;;;;;3.78;2.22;;;;;;;;;;6237905;23;20166;-89
2023/07/27 09:26:10;;;;;;;6.75;2.63;;;;;;;;;;6239735;23;20171;-87
2023/07/27 09:29:15;;;;;;;4.97;2.50;;;;;;;;;;6239317;23;20174;-89
2023/07/27 09:32:35;;;;;;;4.03;3.08;;;;;;;;;;6237457;23;20217;-89
2023/07/27 09:35:43;;;;;;;6.30;2.55;;;;;;;;;;6238967;23;20214;-89
2023/07/27 09:38:57;;;;;;;3.78;2.03;;;;;;;;;;6241703;23;20194;-88
2023/07/27 09:42:03;;;;;;;6.60;2.05;;;;;;;;;;6242193;23;20166;-87
2023/07/27 09:45:09;;;;;;;4.60;1.90;;;;;;;;;;6240840;23;20186;-88
2023/07/27 09:48:15;;;;;;;3.00;1.90;;;;;;;;;;6243746;23;20499;-88
2023/07/27 09:51:24;;;;;;;3.80;2.08;;;;;;;;;;6237653;23;20216;-88
2023/07/27 09:54:29;;;;;;;3.45;2.00;;;;;;;;;;6238320;22;20174;-88
2023/07/27 09:57:35;;;;;;;3.92;1.90;;;;;;;;;;6239607;23;20166;-89
2023/07/27 10:00:45;;;;;;;3.45;2.10;;;;;;;;;;6242358;22;20166;-89
2023/07/27 10:03:52;;;;;;;3.78;1.98;;;;;;;;;;6241838;22;20187;-88
2023/07/27 10:06:58;;;;;;;3.95;1.77;;;;;;;;;;6260745;22;20162;-87
2023/07/27 10:10:22;;;;;;;5.70;2.50;;;;;;;;;;6242481;23;20166;-89
2023/07/27 10:13:38;;;;;;;4.95;1.90;;;;;;;;;;6240152;23;20170;-87
2023/07/27 10:16:57;;;;;;;9.40;2.03;;;;;;;;;;6239941;23;20174;-87
2023/07/27 10:20:20;;;;;;;4.72;2.10;;;;;;;;;;6246951;23;20213;-88
2023/07/27 10:23:31;;;;;;;6.82;2.10;;;;;;;;;;6238642;23;20286;-89
2023/07/27 10:26:46;;;;;;;2.92;1.83;;;;;;;;;;6255527;23;20209;-90
2023/07/27 10:29:53;;;;;;;3.00;2.10;;;;;;;;;;6255884;22;20171;-88
2023/07/27 10:33:11;;;;;;;4.05;2.00;;;;;;;;;;6238194;23;20205;-87
2023/07/27 10:36:16;;;;;;;5.57;2.00;;;;;;;;;;6256816;23;20166;-88
2023/07/27 10:39:27;;;;;;;4.15;2.00;;;;;;;;;;6256189;23;20329;-88
2023/07/27 10:42:35;;;;;;;3.60;2.10;;;;;;;;;;6257196;22;20158;-88
2023/07/27 10:45:40;;;;;;;3.95;1.90;;;;;;;;;;6257683;22;20609;-88
2023/07/27 10:48:58;;;;;;;3.50;2.20;;;;;;;;;;6257743;23;20352;-88
2023/07/27 10:52:02;;;;;;;7.78;2.10;;;;;;;;;;6256459;23;20171;-88
2023/07/27 10:55:10;;;;;;;8.98;2.13;;;;;;;;;;6257329;23;20170;-88
2023/07/27 10:58:16;;;;;;;6.35;2.25;;;;;;;;;;6256219;22;20194;-87
2023/07/27 11:01:21;;;;;;;4.32;2.10;;;;;;;;;;6259660;23;20206;-88
2023/07/27 11:04:27;;;;;;;7.28;3.10;;;;;;;;;;6258153;23;20170;-88
2023/07/27 11:07:33;;;;;;;6.43;2.15;;;;;;;;;;6259479;22;20173;-89
2023/07/27 11:10:40;;;;;;;5.25;2.70;;;;;;;;;;6259965;23;20162;-88
2023/07/27 11:13:45;;;;;;;4.38;1.90;;;;;;;;;;6262752;22;20166;-87
2023/07/27 11:16:53;;;;;;;3.17;2.00;;;;;;;;;;6260927;23;20213;-87
2023/07/27 11:19:58;;;;;;;3.83;1.90;;;;;;;;;;6260722;23;20266;-89
2023/07/27 11:23:03;;;;;;;3.97;2.10;;;;;;;;;;6258942;23;20210;-88
2023/07/27 11:26:12;;;;;;;3.60;2.00;;;;;;;;;;6258757;23;20170;-87
2023/07/27 11:29:19;;;;;;;4.63;2.42;;;;;;;;;;6261587;22;20255;-87
2023/07/27 11:32:25;;;;;;;5.93;2.65;;;;;;;;;;6262076;22;20298;-89
2023/07/27 11:35:30;;;;;;;4.25;2.20;;;;;;;;;;6262259;22;20238;-87
2023/07/27 11:38:57;;;;;;;3.30;2.38;;;;;;;;;;6262193;22;20222;-87
2023/07/27 11:42:11;;;;;;;3.03;2.00;;;;;;;;;;6261026;22;20178;-89
2023/07/27 11:45:17;;;;;;;5.13;2.00;;;;;;;;;;6260741;22;20174;-88
2023/07/27 11:48:26;;;;;;;5.45;2.50;;;;;;;;;;6260520;22;20221;-88
2023/07/27 11:51:31;;;;;;;3.83;1.80;;;;;;;;;;6258448;22;20167;-88
2023/07/27 11:54:39;;;;;;;4.28;1.60;;;;;;;;;;6260123;22;20222;-86
2023/07/27 11:57:53;;;;;;;3.15;1.60;;;;;;;;;;6261731;22;20221;-88
2023/07/27 12:00:59;;;;;;;4.65;1.80;;;;;;;;;;6260280;23;20154;-87
2023/07/27 12:04:13;;;;;;;5.35;2.22;;;;;;;;;;6259974;23;20170;-89
2023/07/27 12:07:18;;;;;;;6.32;2.53;;;;;;;;;;6261289;22;20171;-88
2023/07/27 12:10:23;;;;;;;6.20;2.00;;;;;;;;;;6261506;23;20199;-88
2023/07/27 12:13:30;;;;;;;4.15;1.95;;;;;;;;;;6261967;22;20211;-90
2023/07/27 12:16:40;;;;;;;3.13;2.20;;;;;;;;;;6261231;22;20202;-89
2023/07/27 12:19:45;;;;;;;5.68;2.15;;;;;;;;;;6261207;22;20225;-89
2023/07/27 12:22:51;;;;;;;3.55;1.85;;;;;;;;;;6258624;23;20253;-89
2023/07/27 12:25:56;;;;;;;4.20;1.88;;;;;;;;;;6259447;23;20170;-88
2023/07/27 12:29:03;;;;;;;5.13;2.78;;;;;;;;;;6257970;23;20162;-89
2023/07/27 12:32:10;;;;;;;5.05;2.20;;;;;;;;;;6258769;22;20162;-89
2023/07/27 12:35:16;;;;;;;5.10;2.05;;;;;;;;;;6259942;23;20237;-88
2023/07/27 12:38:22;;;;;;;3.28;2.00;;;;;;;;;;6262267;22;20198;-87
2023/07/27 12:41:27;;;;;;;5.13;2.00;;;;;;;;;;6260933;23;20186;-87
2023/07/27 12:44:33;;;;;;;2.30;1.80;;;;;;;;;;6261856;22;20189;-88
2023/07/27 12:47:38;;;;;;;4.53;1.80;;;;;;;;;;6259304;22;20161;-87
2023/07/27 12:50:43;;;;;;;3.08;1.90;;;;;;;;;;6258219;22;20193;-87
2023/07/27 12:53:48;;;;;;;2.85;1.88;;;;;;;;;;6258912;22;20178;-88
2023/07/27 12:56:53;;;;;;;4.00;2.00;;;;;;;;;;6259071;23;20166;-88
2023/07/27 13:00:00;;;;;;;3.17;1.80;;;;;;;;;;6258863;22;20198;-88
2023/07/27 13:03:06;;;;;;;2.70;1.80;;;;;;;;;;6258872;23;20174;-89
2023/07/27 13:06:11;;;;;;;3.25;1.88;;;;;;;;;;6258533;22;20171;-87
2023/07/27 13:09:17;;;;;;;6.70;1.88;;;;;;;;;;6258302;22;20182;-88
2023/07/27 13:12:22;;;;;;;8.40;1.77;;;;;;;;;;6256891;23;20169;-87
2023/07/27 13:15:29;;;;;;;4.13;2.00;;;;;;;;;;6258450;22;20154;-88
2023/07/27 13:18:34;;;;;;;2.78;1.70;;;;;;;;;;6256041;23;20266;-89
2023/07/27 13:21:39;;;;;;;3.20;2.20;;;;;;;;;;6239588;23;20163;-89
2023/07/27 13:24:45;;;;;;;3.33;2.15;;;;;;;;;;6240849;23;20158;-89
2023/07/27 13:27:50;;;;;;;3.53;2.00;;;;;;;;;;6237179;23;20166;-87
2023/07/27 13:30:56;;;;;;;5.25;2.08;;;;;;;;;;6240459;22;20190;-88
2023/07/27 13:34:01;;;;;;;4.28;2.13;;;;;;;;;;6244431;23;20167;-87
2023/07/27 13:40:30;;;;;;;3.53;2.08;;;;;;;;;;6252256;23;20222;-88
2023/07/27 13:43:37;;;;;;;7.40;2.97;;;;;;;;;;6247819;22;20199;-87
2023/07/27 13:46:44;;;;;;;4.97;2.13;;;;;;;;;;6242884;23;20194;-87
2023/07/27 13:49:49;;;;;;;3.92;2.00;;;;;;;;;;6243991;23;20170;-88
2023/07/27 13:52:54;;;;;;;6.80;3.30;;;;;;;;;;6243668;23;20206;-86
2023/07/27 13:56:03;;;;;;;7.90;4.30;;;;;;;;;;6243701;23;20174;-89
2023/07/27 13:59:09;;;;;;;3.15;2.03;;;;;;;;;;6249139;23;20251;-88
2023/07/27 14:02:16;;;;;;;5.07;2.17;;;;;;;;;;6241564;22;20245;-89
2023/07/27 14:05:21;;;;;;;13.30;8.90;;;;;;;;;;6242135;23;20165;-88
2023/07/27 14:08:26;;;;;;;2.63;1.75;;;;;;;;;;6245224;23;20209;-88
2023/07/27 14:11:34;;;;;;;4.15;2.10;;;;;;;;;;6242707;23;20225;-87
2023/07/27 14:14:39;;;;;;;5.78;2.28;;;;;;;;;;6245754;23;20178;-88
2023/07/27 14:17:47;;;;;;;5.78;2.22;;;;;;;;;;6245890;23;20633;-88
2023/07/27 14:20:52;;;;;;;3.38;1.92;;;;;;;;;;6261844;23;20205;-89
2023/07/27 14:23:57;;;;;;;5.97;2.08;;;;;;;;;;6266355;23;20182;-87
2023/07/27 14:27:03;;;;;;;2.88;1.88;;;;;;;;;;6263644;23;20217;-88
2023/07/27 14:30:09;;;;;;;4.05;1.98;;;;;;;;;;6260447;23;20170;-89
2023/07/27 14:33:24;;;;;;;4.03;2.00;;;;;;;;;;6261081;22;20223;-87
2023/07/27 14:36:30;;;;;;;5.68;2.00;;;;;;;;;;6263810;23;20178;-87
2023/07/27 14:39:46;;;;;;;3.95;2.00;;;;;;;;;;6260629;22;20247;-87
2023/07/27 14:42:51;;;;;;;3.90;2.00;;;;;;;;;;6262122;23;20662;-87
2023/07/27 14:45:57;;;;;;;3.78;2.35;;;;;;;;;;6256621;23;20167;-87
2023/07/27 14:49:11;;;;;;;3.70;2.03;;;;;;;;;;6259213;22;20257;-88
2023/07/27 14:52:16;;;;;;;4.10;1.85;;;;;;;;;;6262685;22;20238;-87
2023/07/27 14:55:21;;;;;;;5.25;2.17;;;;;;;;;;6262829;22;20182;-90
2023/07/27 14:58:26;;;;;;;2.80;1.92;;;;;;;;;;6256080;22;20170;-89
2023/07/27 15:01:31;;;;;;;4.60;2.40;;;;;;;;;;6255428;23;20149;-89
2023/07/27 15:04:38;;;;;;;4.55;2.10;;;;;;;;;;6257191;23;20162;-89
2023/07/27 15:07:43;;;;;;;4.45;2.00;;;;;;;;;;6257388;22;20228;-88
2023/07/27 15:10:48;;;;;;;3.28;2.38;;;;;;;;;;6257291;22;20614;-87
2023/07/27 15:13:54;;;;;;;3.88;1.90;;;;;;;;;;6258056;23;20170;-87
2023/07/27 15:16:59;;;;;;;4.47;2.00;;;;;;;;;;6257716;22;20202;-86
2023/07/27 15:20:07;;;;;;;5.43;2.40;;;;;;;;;;6256432;23;20217;-87
2023/07/27 15:23:12;;;;;;;5.28;3.15;;;;;;;;;;6258763;22;20209;-87
2023/07/27 15:26:17;;;;;;;3.72;2.40;;;;;;;;;;6260339;23;20170;-87
2023/07/27 15:29:23;;;;;;;4.07;2.08;;;;;;;;;;6260823;22;20170;-88
2023/07/27 15:32:29;;;;;;;4.43;2.53;;;;;;;;;;6258093;22;20250;-88
2023/07/27 15:35:35;;;;;;;3.65;1.90;;;;;;;;;;6259506;22;20162;-88
2023/07/27 15:38:45;;;;;;;4.03;2.30;;;;;;;;;;6257081;22;20166;-88
2023/07/27 15:41:50;;;;;;;3.03;1.83;;;;;;;;;;6259037;23;20202;-87
2023/07/27 15:44:57;;;;;;;4.18;2.10;;;;;;;;;;6258075;23;20286;-88
2023/07/27 15:48:03;;;;;;;4.32;2.10;;;;;;;;;;6256523;23;20241;-86
2023/07/27 15:51:09;;;;;;;4.90;2.30;;;;;;;;;;6258059;23;20502;-87
2023/07/27 15:54:15;;;;;;;4.30;2.10;;;;;;;;;;6258880;22;20162;-88
2023/07/27 15:57:20;;;;;;;3.00;1.65;;;;;;;;;;6259948;22;20229;-89
2023/07/27 16:00:27;;;;;;;4.07;2.20;;;;;;;;;;6259132;22;20195;-88
2023/07/27 16:03:33;;;;;;;7.32;1.88;;;;;;;;;;6256380;23;20174;-87
2023/07/27 16:06:39;;;;;;;7.00;2.08;;;;;;;;;;6257554;22;20173;-89
2023/07/27 16:09:51;;;;;;;3.15;1.80;;;;;;;;;;6259877;23;20186;-88
2023/07/27 16:12:56;;;;;;;4.88;1.70;;;;;;;;;;6258294;22;20622;-88
2023/07/27 16:16:01;;;;;;;2.80;1.90;;;;;;;;;;6255959;22;20201;-89
2023/07/27 16:19:06;;;;;;;4.78;2.00;;;;;;;;;;6254436;23;20189;-86
2023/07/27 16:22:12;;;;;;;4.85;2.50;;;;;;;;;;6237099;22;20175;-88
2023/07/27 16:25:17;;;;;;;3.30;2.20;;;;;;;;;;6239773;23;20158;-88
2023/07/27 16:28:22;;;;;;;5.95;2.10;;;;;;;;;;6239556;23;20190;-87
2023/07/27 16:31:27;;;;;;;8.65;4.10;;;;;;;;;;6240839;23;20166;-89
2023/07/27 16:34:33;;;;;;;4.82;1.95;;;;;;;;;;6243372;23;20167;-87
2023/07/27 16:37:42;;;;;;;5.35;2.03;;;;;;;;;;6239760;23;20233;-88
2023/07/27 16:40:53;;;;;;;3.13;2.05;;;;;;;;;;6259036;23;20193;-88
2023/07/27 16:43:58;;;;;;;4.32;2.05;;;;;;;;;;6241919;23;20213;-88
2023/07/27 16:47:03;;;;;;;3.47;1.92;;;;;;;;;;6242187;23;20174;-88
2023/07/27 16:50:09;;;;;;;4.20;2.28;;;;;;;;;;6239857;22;20178;-88
2023/07/27 16:53:16;;;;;;;5.43;1.63;;;;;;;;;;6238286;23;20206;-88
2023/07/27 16:56:21;;;;;;;2.72;1.52;;;;;;;;;;6238920;23;20243;-88
2023/07/27 16:59:26;;;;;;;2.60;1.42;;;;;;;;;;6240302;23;20163;-87
2023/07/27 17:02:34;;;;;;;7.20;1.40;;;;;;;;;;6239636;23;20251;-86
2023/07/27 17:05:40;;;;;;;7.38;1.83;;;;;;;;;;6239362;22;20170;-87
2023/07/27 17:08:55;;;;;;;3.30;1.70;;;;;;;;;;6239170;23;20182;-87
2023/07/27 17:12:00;;;;;;;3.40;1.40;;;;;;;;;;6238992;23;20171;-87
2023/07/27 17:15:06;;;;;;;4.57;1.48;;;;;;;;;;6239585;23;20162;-86
2023/07/27 17:18:10;;;;;;;3.58;1.42;;;;;;;;;;6240516;23;20174;-85
2023/07/27 17:21:16;;;;;;;3.15;1.65;;;;;;;;;;6242005;22;20186;-87
2023/07/27 17:24:23;;;;;;;5.43;1.90;;;;;;;;;;6241464;23;20186;-87
2023/07/27 17:27:29;;;;;;;2.35;1.55;;;;;;;;;;6239927;22;20174;-89
2023/07/27 17:30:36;;;;;;;3.00;1.80;;;;;;;;;;6244524;23;20178;-87
2023/07/27 17:33:42;;;;;;;4.55;1.73;;;;;;;;;;6244655;22;20170;-87
2023/07/27 17:36:51;;;;;;;3.85;1.33;;;;;;;;;;6240377;22;20151;-87
2023/07/27 17:39:57;;;;;;;2.60;1.50;;;;;;;;;;6240908;22;20213;-87
2023/07/27 17:43:04;;;;;;;2.05;1.30;;;;;;;;;;6241291;22;20166;-87
2023/07/27 17:46:09;;;;;;;4.97;1.70;;;;;;;;;;6241169;23;20170;-87
2023/07/27 17:49:14;;;;;;;2.92;1.33;;;;;;;;;;6242737;22;20833;-87
2023/07/27 17:52:20;;;;;;;5.47;1.60;;;;;;;;;;6241572;22;20214;-88
2023/07/27 17:55:27;;;;;;;6.15;1.63;;;;;;;;;;6242564;23;20170;-89
2023/07/27 17:58:51;;;;;;;4.55;1.73;;;;;;;;;;6241358;23;20209;-87
2023/07/27 18:01:56;;;;;;;8.90;2.05;;;;;;;;;;6240718;23;20175;-87
2023/07/27 18:05:03;;;;;;;3.45;1.80;;;;;;;;;;6238391;23;20301;-87
2023/07/27 18:08:08;;;;;;;3.90;1.80;;;;;;;;;;6241411;22;20159;-88
2023/07/27 18:11:15;;;;;;;4.20;1.85;;;;;;;;;;6240719;22;20166;-89
2023/07/27 18:14:20;;;;;;;7.75;2.20;;;;;;;;;;6241484;22;20166;-89
2023/07/27 18:17:26;;;;;;;6.95;1.80;;;;;;;;;;6241771;23;20524;-86
2023/07/27 18:20:31;;;;;;;7.18;1.92;;;;;;;;;;6254586;22;20729;-88
2023/07/27 18:23:36;;;;;;;5.43;1.90;;;;;;;;;;6260255;23;20177;-88
2023/07/27 18:26:42;;;;;;;6.32;1.80;;;;;;;;;;6258588;22;20166;-88
2023/07/27 18:29:47;;;;;;;3.70;1.60;;;;;;;;;;6259183;22;20500;-89
2023/07/27 18:32:54;;;;;;;7.93;1.95;;;;;;;;;;6257927;22;20166;-88
2023/07/27 18:35:59;;;;;;;2.40;1.50;;;;;;;;;;6257140;22;20163;-88
2023/07/27 18:39:08;;;;;;;4.18;2.35;;;;;;;;;;6260702;22;20202;-89
2023/07/27 18:42:15;;;;;;;7.15;2.90;;;;;;;;;;6257756;22;20170;-88
2023/07/27 18:45:22;;;;;;;3.92;2.25;;;;;;;;;;6259164;23;20605;-87
2023/07/27 18:48:27;;;;;;;6.15;2.10;;;;;;;;;;6257351;22;20166;-89
2023/07/27 18:51:32;;;;;;;5.13;1.80;;;;;;;;;;6257221;22;20215;-87
2023/07/27 18:54:37;;;;;;;6.68;2.10;;;;;;;;;;6257796;23;20155;-88
2023/07/27 18:57:44;;;;;;;5.10;2.53;;;;;;;;;;6257309;22;20598;-88
2023/07/27 19:00:49;;;;;;;3.67;2.25;;;;;;;;;;6259264;22;20193;-89
2023/07/27 19:03:54;;;;;;;5.22;2.08;;;;;;;;;;6258902;22;20167;-86
2023/07/27 19:06:59;;;;;;;5.20;2.17;;;;;;;;;;6255748;22;20501;-88
2023/07/27 19:10:05;;;;;;;4.15;1.90;;;;;;;;;;6260831;22;20169;-89
2023/07/27 19:13:12;;;;;;;6.25;1.70;;;;;;;;;;6259777;22;20171;-88
2023/07/27 19:16:17;;;;;;;5.75;2.10;;;;;;;;;;6241953;23;20225;-88
2023/07/27 19:19:26;;;;;;;2.78;2.05;;;;;;;;;;6257083;22;20190;-89
2023/07/27 19:22:31;;;;;;;4.20;1.92;;;;;;;;;;6239090;23;20163;-88
2023/07/27 19:25:39;;;;;;;4.68;2.47;;;;;;;;;;6238426;23;20174;-87
2023/07/27 19:28:46;;;;;;;4.97;2.38;;;;;;;;;;6239149;23;20538;-87
2023/07/27 19:31:51;;;;;;;7.28;1.92;;;;;;;;;;6241052;23;20163;-89
2023/07/27 19:34:56;;;;;;;5.47;2.53;;;;;;;;;;6240364;22;20812;-88
2023/07/27 19:38:07;;;;;;;5.25;2.63;;;;;;;;;;6238428;23;20277;-88
2023/07/27 19:41:12;;;;;;;4.65;2.10;;;;;;;;;;6238402;22;20249;-88
2023/07/27 19:44:19;;;;;;;3.38;2.13;;;;;;;;;;6238283;22;20186;-88
2023/07/27 19:47:27;;;;;;;4.68;2.00;;;;;;;;;;6240240;23;20230;-87